createdAt,value
2018-09-28T00:01:40.186Z,10.00
2018-09-28T00:04:08.618Z,10.00
2018-09-28T00:06:37.086Z,10.00
2018-09-28T00:09:07.959Z,9.90
2018-09-28T00:11:36.425Z,9.90
2018-09-28T00:14:04.999Z,9.80
2018-09-28T00:16:33.423Z,9.80
2018-09-28T00:19:01.918Z,9.90
2018-09-28T00:21:30.382Z,9.80
2018-09-28T00:23:58.858Z,9.80
2018-09-28T00:26:27.495Z,9.80
2018-09-28T00:28:55.962Z,9.70
2018-09-28T00:31:24.429Z,9.70
2018-09-28T00:33:52.885Z,9.70
2018-09-28T00:36:21.319Z,9.60
2018-09-28T00:38:49.776Z,9.60
2018-09-28T00:41:18.227Z,9.50
2018-09-28T00:43:46.921Z,9.50
2018-09-28T00:46:15.377Z,9.50
2018-09-28T00:48:43.844Z,9.50
2018-09-28T00:51:12.282Z,9.50
2018-09-28T00:53:40.741Z,9.50
2018-09-28T00:56:09.178Z,9.50
2018-09-28T00:58:37.662Z,9.50
2018-09-28T01:01:06.234Z,9.50
2018-09-28T01:03:34.701Z,9.50
2018-09-28T01:06:03.165Z,9.40
2018-09-28T01:08:31.618Z,9.40
2018-09-28T01:11:00.046Z,9.40
2018-09-28T01:13:28.510Z,9.40
2018-09-28T01:15:56.982Z,9.30
2018-09-28T01:18:25.461Z,9.30
2018-09-28T01:20:53.926Z,9.40
2018-09-28T01:23:22.373Z,9.40
2018-09-28T01:25:50.802Z,9.40
2018-09-28T01:28:19.294Z,9.40
2018-09-28T01:30:47.754Z,9.40
2018-09-28T01:33:16.242Z,9.30
2018-09-28T01:35:44.667Z,9.30
2018-09-28T01:38:13.106Z,9.20
2018-09-28T01:40:41.534Z,9.20
2018-09-28T01:43:10.006Z,9.20
2018-09-28T01:45:38.425Z,9.20
2018-09-28T01:48:06.872Z,9.20
2018-09-28T01:50:35.298Z,9.20
2018-09-28T01:53:03.757Z,9.10
2018-09-28T01:55:32.185Z,9.20
2018-09-28T01:58:00.644Z,9.10
2018-09-28T02:00:29.075Z,9.10
2018-09-28T02:02:57.499Z,9.10
2018-09-28T02:05:25.947Z,9.10
2018-09-28T02:07:54.366Z,9.00
2018-09-28T02:10:22.812Z,9.00
2018-09-28T02:12:51.238Z,8.90
2018-09-28T02:15:19.691Z,8.90
2018-09-28T02:17:48.148Z,8.80
2018-09-28T02:20:16.602Z,8.90
2018-09-28T02:22:45.026Z,8.80
2018-09-28T02:25:13.638Z,8.80
2018-09-28T02:27:42.194Z,8.80
2018-09-28T02:30:10.636Z,8.80
2018-09-28T02:32:39.054Z,8.70
2018-09-28T02:35:07.538Z,8.70
2018-09-28T02:37:35.966Z,8.70
2018-09-28T02:40:04.490Z,8.70
2018-09-28T02:42:32.918Z,8.70
2018-09-28T02:45:01.393Z,8.70
2018-09-28T02:47:29.834Z,8.70
2018-09-28T02:49:58.284Z,8.70
2018-09-28T02:52:26.713Z,8.60
2018-09-28T02:54:55.155Z,8.60
2018-09-28T02:57:23.603Z,8.50
2018-09-28T02:59:52.054Z,8.50
2018-09-28T03:02:20.478Z,8.60
2018-09-28T03:04:48.910Z,8.60
2018-09-28T03:07:17.342Z,8.60
2018-09-28T03:09:45.798Z,8.60
2018-09-28T03:12:14.230Z,8.60
2018-09-28T03:14:42.686Z,8.50
2018-09-28T03:17:11.149Z,8.50
2018-09-28T03:19:39.666Z,8.40
2018-09-28T03:22:08.102Z,8.40
2018-09-28T03:24:36.551Z,8.40
2018-09-28T03:27:04.974Z,8.40
2018-09-28T03:29:33.430Z,8.30
2018-09-28T03:32:01.837Z,8.30
2018-09-28T03:34:30.297Z,8.20
2018-09-28T03:36:58.735Z,8.20
2018-09-28T03:39:28.023Z,8.30
2018-09-28T03:41:56.442Z,8.30
2018-09-28T03:44:24.894Z,8.20
2018-09-28T03:46:53.330Z,8.20
2018-09-28T03:49:21.793Z,8.10
2018-09-28T03:51:50.229Z,8.10
2018-09-28T03:54:18.671Z,8.20
2018-09-28T03:56:47.113Z,8.10
2018-09-28T03:59:15.534Z,8.10
2018-09-28T04:01:43.990Z,8.10
2018-09-28T04:04:12.477Z,8.10
2018-09-28T04:06:40.930Z,8.10
2018-09-28T04:09:10.471Z,8.10
2018-09-28T04:11:38.963Z,8.00
2018-09-28T04:14:07.638Z,8.00
2018-09-28T04:16:36.126Z,8.00
2018-09-28T04:19:04.831Z,8.00
2018-09-28T04:21:33.297Z,7.90
2018-09-28T04:24:01.725Z,7.80
2018-09-28T04:26:30.169Z,7.80
2018-09-28T04:28:58.670Z,7.70
2018-09-28T04:31:27.126Z,7.70
2018-09-28T04:33:55.569Z,7.70
2018-09-28T04:36:24.091Z,7.70
2018-09-28T04:38:52.537Z,7.70
2018-09-28T04:41:20.990Z,7.70
2018-09-28T04:43:49.425Z,7.70
2018-09-28T04:46:17.903Z,7.70
2018-09-28T04:48:46.361Z,7.70
2018-09-28T04:51:14.833Z,7.70
2018-09-28T04:53:43.277Z,7.60
2018-09-28T04:56:11.743Z,7.60
2018-09-28T04:58:40.193Z,7.60
2018-09-28T05:01:08.801Z,7.60
2018-09-28T05:03:37.241Z,7.60
2018-09-28T05:06:05.715Z,7.60
2018-09-28T05:08:34.153Z,7.60
2018-09-28T05:11:02.614Z,7.60
2018-09-28T05:13:31.050Z,7.60
2018-09-28T05:15:59.507Z,7.60
2018-09-28T05:18:27.978Z,7.60
2018-09-28T05:20:56.457Z,7.50
2018-09-28T05:23:24.895Z,7.40
2018-09-28T05:25:53.360Z,7.40
2018-09-28T05:28:21.807Z,7.40
2018-09-28T05:30:53.970Z,7.30
2018-09-28T05:33:18.717Z,7.40
2018-09-28T05:35:47.182Z,7.30
2018-09-28T05:38:15.633Z,7.30
2018-09-28T05:40:44.103Z,7.40
2018-09-28T05:43:12.633Z,7.40
2018-09-28T05:45:41.071Z,7.40
2018-09-28T05:48:09.552Z,7.40
2018-09-28T05:50:38.048Z,7.40
2018-09-28T05:53:06.697Z,7.40
2018-09-28T05:55:35.181Z,7.40
2018-09-28T05:58:08.988Z,7.50
2018-09-28T06:00:42.617Z,7.60
2018-09-28T06:03:14.768Z,7.60
2018-09-28T06:05:47.783Z,7.60
2018-09-28T06:08:16.394Z,7.60
2018-09-28T06:10:44.854Z,7.80
2018-09-28T06:13:13.374Z,7.90
2018-09-28T06:15:41.814Z,8.00
2018-09-28T06:18:10.338Z,8.00
2018-09-28T06:20:38.807Z,8.10
2018-09-28T06:23:07.878Z,8.10
2018-09-28T06:25:36.335Z,8.20
2018-09-28T06:28:04.817Z,8.30
2018-09-28T06:30:33.287Z,8.40
2018-09-28T06:33:01.749Z,8.50
2018-09-28T06:35:30.233Z,8.60
2018-09-28T06:37:58.688Z,8.70
2018-09-28T06:40:27.135Z,8.70
2018-09-28T06:42:55.651Z,8.80
2018-09-28T06:45:24.100Z,8.80
2018-09-28T06:47:52.566Z,8.90
2018-09-28T06:50:21.002Z,9.10
2018-09-28T06:52:49.449Z,9.20
2018-09-28T06:55:17.871Z,9.40
2018-09-28T06:57:46.339Z,9.50
2018-09-28T07:00:14.825Z,9.60
2018-09-28T07:02:43.270Z,9.80
2018-09-28T07:05:11.732Z,9.90
2018-09-28T07:07:40.198Z,10.00
2018-09-28T07:10:08.685Z,10.20
2018-09-28T07:12:37.195Z,10.30
2018-09-28T07:15:06.096Z,10.40
2018-09-28T07:17:34.581Z,10.60
2018-09-28T07:20:03.030Z,10.70
2018-09-28T07:22:31.499Z,10.90
2018-09-28T07:25:00.003Z,11.00
2018-09-28T07:27:28.426Z,11.10
2018-09-28T07:29:57.033Z,11.20
2018-09-28T07:32:25.328Z,11.40
2018-09-28T07:34:53.782Z,11.40
2018-09-28T07:37:22.242Z,11.40
2018-09-28T07:39:50.749Z,11.60
2018-09-28T07:42:19.324Z,11.70
2018-09-28T07:44:47.718Z,11.90
2018-09-28T07:47:16.206Z,12.10
2018-09-28T07:49:44.642Z,12.30
2018-09-28T07:52:13.148Z,12.40
2018-09-28T07:54:41.614Z,12.60
2018-09-28T07:57:10.038Z,12.90
2018-09-28T07:59:38.529Z,13.10
2018-09-28T08:02:07.729Z,13.20
2018-09-28T08:04:36.190Z,13.40
2018-09-28T08:07:04.630Z,13.50
2018-09-28T08:09:33.075Z,13.60
2018-09-28T08:12:01.507Z,13.70
2018-09-28T08:14:29.977Z,13.80
2018-09-28T08:16:58.422Z,14.10
2018-09-28T08:19:26.866Z,14.10
2018-09-28T08:21:55.306Z,14.40
2018-09-28T08:24:23.752Z,14.70
2018-09-28T08:26:52.174Z,14.60
2018-09-28T08:29:20.634Z,14.30
2018-09-28T08:31:49.047Z,14.70
2018-09-28T08:34:17.517Z,15.20
2018-09-28T08:36:46.011Z,15.30
2018-09-28T08:39:14.414Z,15.30
2018-09-28T08:41:42.897Z,15.50
2018-09-28T08:44:11.342Z,16.00
2018-09-28T08:46:39.786Z,16.50
2018-09-28T08:49:08.281Z,16.50
2018-09-28T08:51:36.682Z,17.00
2018-09-28T08:54:05.130Z,16.80
2018-09-28T08:56:33.566Z,17.40
2018-09-28T08:59:02.030Z,17.70
2018-09-28T09:01:30.469Z,18.30
2018-09-28T09:03:58.917Z,19.20
2018-09-28T09:06:27.348Z,19.80
2018-09-28T09:08:55.811Z,20.50
2018-09-28T09:11:24.242Z,20.70
2018-09-28T09:13:52.649Z,21.30
2018-09-28T09:16:21.093Z,21.90
2018-09-28T09:18:49.535Z,22.20
2018-09-28T09:21:17.986Z,22.00
2018-09-28T09:23:46.416Z,21.90
2018-09-28T09:26:14.867Z,22.00
2018-09-28T09:28:43.285Z,22.50
2018-09-28T09:31:11.747Z,23.10
2018-09-28T09:33:40.179Z,23.50
2018-09-28T09:36:08.626Z,23.70
2018-09-28T09:38:37.065Z,24.00
2018-09-28T09:41:05.885Z,23.90
2018-09-28T09:43:34.369Z,24.40
2018-09-28T09:46:02.810Z,24.70
2018-09-28T09:48:31.345Z,24.50
2018-09-28T09:50:59.757Z,24.60
2018-09-28T09:53:28.202Z,25.00
2018-09-28T09:55:56.676Z,24.90
2018-09-28T09:58:25.146Z,25.60
2018-09-28T10:00:58.830Z,25.60
2018-09-28T10:03:32.499Z,25.60
2018-09-28T10:06:00.972Z,25.90
2018-09-28T10:08:29.405Z,25.40
2018-09-28T10:10:57.901Z,26.30
2018-09-28T10:13:26.317Z,26.70
2018-09-28T10:15:54.781Z,27.40
2018-09-28T10:18:23.258Z,27.70
2018-09-28T10:20:51.698Z,28.00
2018-09-28T10:23:20.142Z,28.00
2018-09-28T10:25:48.741Z,28.20
2018-09-28T10:28:17.265Z,27.70
2018-09-28T10:30:45.649Z,27.60
2018-09-28T10:33:14.071Z,27.80
2018-09-28T10:35:42.542Z,28.50
2018-09-28T10:38:10.990Z,29.90
2018-09-28T10:40:39.604Z,30.60
2018-09-28T10:43:07.918Z,29.40
2018-09-28T10:45:36.536Z,30.30
2018-09-28T10:48:05.163Z,30.70
2018-09-28T10:50:33.825Z,31.10
2018-09-28T10:53:02.345Z,31.60
2018-09-28T10:55:30.751Z,31.10
2018-09-28T10:57:59.195Z,31.10
2018-09-28T11:00:27.650Z,31.00
2018-09-28T11:02:56.098Z,30.40
2018-09-28T11:05:24.530Z,29.70
2018-09-28T11:07:53.002Z,28.70
2018-09-28T11:10:21.462Z,29.10
2018-09-28T11:12:49.917Z,29.60
2018-09-28T11:15:18.411Z,30.20
2018-09-28T11:17:46.850Z,30.00
2018-09-28T11:20:15.287Z,30.70
2018-09-28T11:22:43.735Z,30.20
2018-09-28T11:25:12.157Z,30.70
2018-09-28T11:27:40.630Z,29.50
2018-09-28T11:30:09.046Z,29.80
2018-09-28T11:32:37.498Z,29.50
2018-09-28T11:35:06.018Z,29.00
2018-09-28T11:37:34.517Z,28.90
2018-09-28T11:40:02.938Z,29.20
2018-09-28T11:42:31.370Z,29.50
2018-09-28T11:44:59.776Z,28.20
2018-09-28T11:47:28.214Z,28.70
2018-09-28T11:49:56.634Z,29.30
2018-09-28T11:52:25.089Z,28.10
2018-09-28T11:54:53.493Z,28.80
2018-09-28T11:57:21.996Z,28.90
2018-09-28T11:59:50.484Z,29.70
2018-09-28T12:02:18.934Z,29.70
2018-09-28T12:04:47.370Z,29.50
2018-09-28T12:07:15.892Z,29.00
2018-09-28T12:09:44.308Z,28.20
2018-09-28T12:12:12.780Z,28.40
2018-09-28T12:14:41.193Z,28.80
2018-09-28T12:17:09.760Z,28.80
2018-09-28T12:19:38.186Z,28.80
2018-09-28T12:22:06.765Z,29.40
2018-09-28T12:24:35.210Z,28.90
2018-09-28T12:27:03.699Z,29.60
2018-09-28T12:29:32.114Z,29.80
2018-09-28T12:32:00.549Z,29.50
2018-09-28T12:34:28.978Z,29.40
2018-09-28T12:36:57.419Z,29.10
2018-09-28T12:39:25.871Z,28.60
2018-09-28T12:41:54.306Z,28.40
2018-09-28T12:44:22.814Z,28.80
2018-09-28T12:46:51.177Z,29.50
2018-09-28T12:49:19.617Z,29.40
2018-09-28T12:51:48.038Z,29.00
2018-09-28T12:54:16.545Z,28.40
2018-09-28T12:56:44.961Z,28.90
2018-09-28T12:59:13.389Z,28.60
2018-09-28T13:01:41.813Z,28.70
2018-09-28T13:04:14.474Z,28.80
2018-09-28T13:06:42.928Z,28.70
2018-09-28T13:09:13.459Z,29.10
2018-09-28T13:11:41.891Z,28.60
2018-09-28T13:14:10.474Z,28.60
2018-09-28T13:16:38.853Z,29.00
2018-09-28T13:19:07.478Z,29.30
2018-09-28T13:21:35.927Z,30.70
2018-09-28T13:24:04.370Z,29.20
2018-09-28T13:26:32.860Z,26.90
2018-09-28T13:29:01.332Z,26.00
2018-09-28T13:31:29.727Z,25.40
2018-09-28T13:33:58.177Z,25.60
2018-09-28T13:36:26.652Z,26.20
2018-09-28T13:38:55.269Z,26.60
2018-09-28T13:41:23.591Z,27.10
2018-09-28T13:43:52.038Z,28.90
2018-09-28T13:46:20.470Z,29.50
2018-09-28T13:48:49.078Z,29.70
2018-09-28T13:51:17.635Z,30.20
2018-09-28T13:53:46.136Z,31.10
2018-09-28T13:56:14.580Z,30.30
2018-09-28T13:58:43.059Z,30.30
2018-09-28T14:01:11.434Z,28.30
2018-09-28T14:03:39.877Z,26.70
2018-09-28T14:06:08.346Z,25.90
2018-09-28T14:08:36.842Z,25.30
2018-09-28T14:11:05.291Z,25.00
2018-09-28T14:13:33.851Z,23.90
2018-09-28T14:16:02.305Z,23.30
2018-09-28T14:18:30.767Z,23.00
2018-09-28T14:20:59.190Z,22.70
2018-09-28T14:23:27.602Z,23.20
2018-09-28T14:25:56.053Z,23.40
2018-09-28T14:28:24.499Z,23.50
2018-09-28T14:30:52.957Z,23.50
2018-09-28T14:33:21.373Z,23.50
2018-09-28T14:35:49.816Z,24.10
2018-09-28T14:38:18.288Z,23.80
2018-09-28T14:40:46.772Z,23.00
2018-09-28T14:43:15.146Z,22.50
2018-09-28T14:45:43.585Z,22.10
2018-09-28T14:48:12.051Z,22.10
2018-09-28T14:50:40.497Z,21.90
2018-09-28T14:53:09.024Z,21.10
2018-09-28T14:55:37.503Z,20.80
2018-09-28T14:58:05.934Z,20.80
2018-09-28T15:00:34.453Z,20.60
2018-09-28T15:03:02.809Z,20.70
2018-09-28T15:05:31.299Z,20.70
2018-09-28T15:07:59.712Z,20.80
2018-09-28T15:10:28.151Z,20.50
2018-09-28T15:12:56.598Z,20.30
2018-09-28T15:15:25.052Z,20.30
2018-09-28T15:17:53.505Z,20.10
2018-09-28T15:20:21.950Z,19.70
2018-09-28T15:22:50.385Z,19.40
2018-09-28T15:25:18.828Z,19.20
2018-09-28T15:27:47.253Z,19.10
2018-09-28T15:30:15.763Z,18.90
2018-09-28T15:32:44.149Z,18.80
2018-09-28T15:35:12.618Z,18.60
2018-09-28T15:37:41.037Z,18.40
2018-09-28T15:40:09.501Z,18.20
2018-09-28T15:42:37.927Z,17.90
2018-09-28T15:45:06.454Z,17.70
2018-09-28T15:47:34.931Z,17.50
2018-09-28T15:50:03.337Z,17.40
2018-09-28T15:52:31.746Z,17.30
2018-09-28T15:55:00.174Z,17.20
2018-09-28T15:57:28.627Z,17.00
2018-09-28T15:59:57.089Z,16.90
2018-09-28T16:02:25.526Z,16.60
2018-09-28T16:04:53.938Z,16.50
2018-09-28T16:07:22.381Z,16.50
2018-09-28T16:09:50.798Z,16.50
2018-09-28T16:12:19.303Z,16.30
2018-09-28T16:14:47.739Z,16.00
2018-09-28T16:17:16.213Z,15.90
2018-09-28T16:19:44.673Z,15.90
2018-09-28T16:22:13.130Z,15.90
2018-09-28T16:24:41.593Z,15.90
2018-09-28T16:27:10.014Z,15.60
2018-09-28T16:29:38.434Z,15.60
2018-09-28T16:32:06.981Z,15.60
2018-09-28T16:34:35.395Z,15.60
2018-09-28T16:37:03.854Z,15.40
2018-09-28T16:39:32.294Z,15.40
2018-09-28T16:42:00.749Z,15.30
2018-09-28T16:44:29.178Z,15.10
2018-09-28T16:46:57.633Z,15.20
2018-09-28T16:49:26.113Z,15.20
2018-09-28T16:51:54.592Z,15.00
2018-09-28T16:54:23.021Z,15.00
2018-09-28T16:56:51.506Z,15.00
2018-09-28T16:59:19.937Z,15.00
2018-09-28T17:01:48.545Z,14.80
2018-09-28T17:04:17.025Z,14.80
2018-09-28T17:06:45.713Z,14.70
2018-09-28T17:09:14.181Z,14.60
2018-09-28T17:11:42.689Z,14.60
2018-09-28T17:14:11.125Z,14.40
2018-09-28T17:16:39.614Z,14.40
2018-09-28T17:19:08.069Z,14.40
2018-09-28T17:21:36.554Z,14.40
2018-09-28T17:24:04.985Z,14.30
2018-09-28T17:26:33.430Z,14.20
2018-09-28T17:29:01.855Z,14.10
2018-09-28T17:31:30.302Z,14.10
2018-09-28T17:33:58.730Z,14.00
2018-09-28T17:36:28.145Z,13.90
2018-09-28T17:38:56.570Z,13.70
2018-09-28T17:41:25.067Z,13.70
2018-09-28T17:43:53.473Z,13.50
2018-09-28T17:46:21.943Z,13.50
2018-09-28T17:48:50.373Z,13.40
2018-09-28T17:51:18.843Z,13.40
2018-09-28T17:53:47.271Z,13.30
2018-09-28T17:56:15.789Z,13.20
2018-09-28T17:58:44.210Z,13.10
2018-09-28T18:01:12.658Z,13.10
2018-09-28T18:03:41.093Z,13.10
2018-09-28T18:06:09.547Z,13.10
2018-09-28T18:08:37.955Z,13.20
2018-09-28T18:11:06.710Z,13.20
2018-09-28T18:13:35.139Z,13.20
2018-09-28T18:16:03.590Z,13.10
2018-09-28T18:18:32.038Z,13.10
2018-09-28T18:21:00.482Z,13.10
2018-09-28T18:23:28.965Z,13.00
2018-09-28T18:25:57.394Z,12.90
2018-09-28T18:28:25.998Z,13.00
2018-09-28T18:30:54.429Z,13.10
2018-09-28T18:33:22.920Z,13.10
2018-09-28T18:35:51.322Z,13.00
2018-09-28T18:38:19.777Z,12.90
2018-09-28T18:40:48.283Z,12.80
2018-09-28T18:43:16.744Z,12.90
2018-09-28T18:45:45.223Z,12.90
2018-09-28T18:48:13.688Z,12.80
2018-09-28T18:50:42.146Z,12.90
2018-09-28T18:53:10.613Z,12.90
2018-09-28T18:55:39.051Z,12.80
2018-09-28T18:58:07.638Z,12.90
2018-09-28T19:00:36.081Z,12.80
2018-09-28T19:03:04.549Z,12.80
2018-09-28T19:05:33.048Z,12.80
2018-09-28T19:08:01.558Z,12.80
2018-09-28T19:10:30.014Z,12.80
2018-09-28T19:12:58.529Z,12.80
2018-09-28T19:15:26.959Z,12.80
2018-09-28T19:17:55.446Z,12.80
2018-09-28T19:20:23.883Z,12.80
2018-09-28T19:22:52.490Z,12.80
2018-09-28T19:25:20.926Z,12.80
2018-09-28T19:27:49.371Z,12.80
2018-09-28T19:30:17.802Z,12.80
2018-09-28T19:32:46.250Z,12.80
2018-09-28T19:35:14.690Z,12.80
2018-09-28T19:37:43.162Z,12.80
2018-09-28T19:40:11.618Z,12.80
2018-09-28T19:42:40.074Z,12.70
2018-09-28T19:45:08.513Z,12.80
2018-09-28T19:47:37.186Z,12.70
2018-09-28T19:50:05.701Z,12.80
2018-09-28T19:52:34.138Z,12.70
2018-09-28T19:55:02.581Z,12.70
2018-09-28T19:57:31.081Z,12.60
2018-09-28T19:59:59.522Z,12.60
2018-09-28T20:02:27.991Z,12.70
2018-09-28T20:04:56.426Z,12.60
2018-09-28T20:07:24.879Z,12.70
2018-09-28T20:09:53.296Z,12.70
2018-09-28T20:12:21.794Z,12.70
2018-09-28T20:14:50.226Z,12.70
2018-09-28T20:17:18.697Z,12.70
2018-09-28T20:19:47.150Z,12.60
2018-09-28T20:22:15.635Z,12.60
2018-09-28T20:24:44.079Z,12.60
2018-09-28T20:27:12.533Z,12.60
2018-09-28T20:29:40.958Z,12.60
2018-09-28T20:32:09.481Z,12.60
2018-09-28T20:34:37.967Z,12.70
2018-09-28T20:37:06.442Z,12.60
2018-09-28T20:39:34.889Z,12.60
2018-09-28T20:42:03.391Z,12.60
2018-09-28T20:44:31.832Z,12.60
2018-09-28T20:47:00.278Z,12.60
2018-09-28T20:49:28.764Z,12.60
2018-09-28T20:51:57.229Z,12.60
2018-09-28T20:54:25.687Z,12.50
2018-09-28T20:56:54.155Z,12.50
2018-09-28T20:59:22.614Z,12.50
2018-09-28T21:01:51.050Z,12.60
2018-09-28T21:04:19.524Z,12.50
2018-09-28T21:06:47.983Z,12.50
2018-09-28T21:09:16.446Z,12.50
2018-09-28T21:11:44.934Z,12.50
2018-09-28T21:14:13.450Z,12.50
2018-09-28T21:16:41.889Z,12.50
2018-09-28T21:19:10.391Z,12.40
2018-09-28T21:21:38.883Z,12.30
2018-09-28T21:24:07.757Z,12.20
2018-09-28T21:26:36.306Z,12.10
2018-09-28T21:29:05.003Z,12.10
2018-09-28T21:31:33.441Z,12.00
2018-09-28T21:34:01.906Z,11.90
2018-09-28T21:36:30.353Z,11.80
2018-09-28T21:38:58.818Z,11.70
2018-09-28T21:41:27.239Z,11.70
2018-09-28T21:43:55.726Z,11.60
2018-09-28T21:46:24.153Z,11.60
2018-09-28T21:48:52.605Z,11.50
2018-09-28T21:51:21.058Z,11.50
2018-09-28T21:53:49.546Z,11.30
2018-09-28T21:56:18.026Z,11.30
2018-09-28T21:58:46.513Z,11.30
2018-09-28T22:01:17.841Z,11.20
2018-09-28T22:03:47.474Z,11.20
2018-09-28T22:06:15.935Z,11.10
2018-09-28T22:08:44.737Z,11.10
2018-09-28T22:11:13.357Z,11.10
2018-09-28T22:13:41.857Z,10.90
2018-09-28T22:16:10.304Z,10.90
2018-09-28T22:18:38.801Z,10.80
2018-09-28T22:21:07.257Z,10.80
2018-09-28T22:23:35.705Z,10.80
2018-09-28T22:26:04.193Z,10.80
2018-09-28T22:28:32.637Z,10.80
2018-09-28T22:31:01.076Z,10.80
2018-09-28T22:33:29.562Z,10.80
2018-09-28T22:35:58.010Z,10.80
2018-09-28T22:38:26.510Z,10.70
2018-09-28T22:40:55.150Z,10.70
2018-09-28T22:43:23.681Z,10.60
2018-09-28T22:45:52.149Z,10.60
2018-09-28T22:48:20.614Z,10.50
2018-09-28T22:50:49.152Z,10.50
2018-09-28T22:53:17.633Z,10.40
2018-09-28T22:55:46.106Z,10.40
2018-09-28T22:58:14.566Z,10.40
2018-09-28T23:00:43.017Z,10.40
2018-09-28T23:03:11.477Z,10.30
2018-09-28T23:05:39.995Z,10.30
2018-09-28T23:08:08.390Z,10.30
2018-09-28T23:10:36.887Z,10.30
2018-09-28T23:13:05.361Z,10.30
2018-09-28T23:15:33.793Z,10.20
2018-09-28T23:18:02.261Z,10.20
2018-09-28T23:20:30.716Z,10.10
2018-09-28T23:22:59.206Z,10.00
2018-09-28T23:25:27.647Z,10.00
2018-09-28T23:27:56.139Z,9.90
2018-09-28T23:30:24.593Z,9.90
2018-09-28T23:32:53.068Z,9.80
2018-09-28T23:35:21.606Z,9.80
2018-09-28T23:37:50.077Z,9.80
2018-09-28T23:40:18.518Z,9.70
2018-09-28T23:42:46.982Z,9.70
2018-09-28T23:45:15.465Z,9.70
2018-09-28T23:47:43.949Z,9.60
2018-09-28T23:50:12.378Z,9.60
2018-09-28T23:52:40.861Z,9.60
2018-09-28T23:55:09.343Z,9.60
2018-09-28T23:57:37.788Z,9.60
